Time;durP1;ratioP1;P1;durP2;ratioP2;P2;SDS_P1;SDS_P2;PMS_P1;PMS_P2;Temp;Humidity;BMP_temperature;BMP_pressure;BME280_temperature;BME280_humidity;BME280_pressure;Samples;Min_cycle;Max_cycle;Signal;HPM_P1;HPM_P2
2021/10/11 00:01:31;;;;;;;16.80;12.10;;;;;;;3.86;100.00;99091.88;5072484;28;20592;-67
2021/10/11 00:03:58;;;;;;;17.90;12.53;;;;;;;3.90;100.00;99095.25;5074094;28;20243;-68
2021/10/11 00:06:24;;;;;;;16.13;11.53;;;;;;;3.87;100.00;99096.22;5074036;28;20219;-68
2021/10/11 00:08:51;;;;;;;15.27;11.93;;;;;;;3.86;100.00;99086.66;5073968;28;20219;-67
2021/10/11 00:11:17;;;;;;;17.63;12.40;;;;;;;3.83;100.00;99085.88;5074090;28;20217;-67
2021/10/11 00:13:44;;;;;;;15.50;12.50;;;;;;;3.77;100.00;99081.69;5074038;28;20219;-68
2021/10/11 00:16:12;;;;;;;14.70;11.73;;;;;;;3.82;100.00;99081.53;5074068;28;20245;-68
2021/10/11 00:18:39;;;;;;;16.60;12.37;;;;;;;3.77;100.00;99086.91;5073470;28;20223;-68
2021/10/11 00:21:06;;;;;;;15.57;12.17;;;;;;;3.74;100.00;99092.22;5073805;28;20230;-67
2021/10/11 00:23:32;;;;;;;15.23;12.23;;;;;;;3.71;100.00;99087.06;5073464;28;20238;-67
2021/10/11 00:25:59;;;;;;;17.33;12.73;;;;;;;3.67;100.00;99088.03;5073688;28;20221;-67
2021/10/11 00:28:25;;;;;;;17.90;12.10;;;;;;;3.61;100.00;99101.28;5071923;28;20218;-68
2021/10/11 00:30:52;;;;;;;18.23;12.23;;;;;;;3.66;100.00;99098.56;5068492;28;20224;-68
2021/10/11 00:33:18;;;;;;;17.33;13.10;;;;;;;3.60;100.00;99109.19;5073474;28;20584;-68
2021/10/11 00:35:46;;;;;;;18.17;13.63;;;;;;;3.60;100.00;99104.78;5073536;28;20225;-67
2021/10/11 00:38:13;;;;;;;17.40;12.67;;;;;;;3.57;100.00;99101.41;5073163;28;20217;-67
2021/10/11 00:40:39;;;;;;;16.87;13.00;;;;;;;3.64;100.00;99100.34;5073059;28;20223;-68
2021/10/11 00:43:06;;;;;;;15.83;11.30;;;;;;;3.68;100.00;99107.22;5072876;28;20229;-67
2021/10/11 00:45:32;;;;;;;15.03;11.73;;;;;;;3.61;100.00;99100.44;5073312;28;20221;-67
2021/10/11 00:47:59;;;;;;;16.73;12.30;;;;;;;3.54;100.00;99098.88;5073115;28;20669;-68
2021/10/11 00:50:25;;;;;;;15.40;11.83;;;;;;;3.50;100.00;99092.88;5073323;28;20214;-68
2021/10/11 00:52:53;;;;;;;16.03;11.90;;;;;;;3.46;100.00;99091.25;5072344;28;20207;-67
2021/10/11 00:55:20;;;;;;;14.93;11.20;;;;;;;3.46;100.00;99091.25;5072208;28;20612;-67
2021/10/11 00:57:46;;;;;;;13.57;11.60;;;;;;;3.46;100.00;99080.78;5073084;28;20218;-67
2021/10/11 01:00:14;;;;;;;14.77;10.87;;;;;;;3.40;100.00;99087.91;5067282;28;20225;-68
2021/10/11 01:02:41;;;;;;;15.90;12.47;;;;;;;3.36;100.00;99084.53;5068046;28;20216;-67
2021/10/11 01:05:08;;;;;;;18.17;11.93;;;;;;;3.41;100.00;99087.88;5069928;28;20241;-67
2021/10/11 01:07:35;;;;;;;16.57;13.00;;;;;;;3.37;100.00;99080.16;5070140;28;20228;-67
2021/10/11 01:10:03;;;;;;;16.47;12.77;;;;;;;3.31;100.00;99081.16;5070157;28;20217;-67
2021/10/11 01:12:30;;;;;;;15.37;12.13;;;;;;;3.29;100.00;99080.34;5065352;28;20214;-67
2021/10/11 01:14:57;;;;;;;15.13;11.70;;;;;;;3.29;100.00;99066.41;5073044;28;20577;-67
2021/10/11 01:17:23;;;;;;;16.17;12.57;;;;;;;3.29;100.00;99058.59;5072943;28;20216;-67
2021/10/11 01:19:51;;;;;;;20.47;14.07;;;;;;;3.30;100.00;99055.94;5071310;28;20256;-67
2021/10/11 01:22:19;;;;;;;17.03;14.40;;;;;;;3.35;100.00;99053.19;5072835;28;20226;-67
2021/10/11 01:24:46;;;;;;;21.83;15.40;;;;;;;3.38;100.00;99059.22;5072823;28;20248;-67
2021/10/11 01:27:15;;;;;;;21.43;15.97;;;;;;;3.46;100.00;99059.88;5072610;28;20232;-67
2021/10/11 01:29:41;;;;;;;21.30;15.20;;;;;;;3.45;100.00;99060.78;5072922;28;20216;-67
2021/10/11 01:32:08;;;;;;;22.37;16.43;;;;;;;3.42;100.00;99063.47;5072878;28;20226;-67
2021/10/11 01:34:34;;;;;;;24.03;15.20;;;;;;;3.46;100.00;99061.63;5072627;28;20210;-67
2021/10/11 01:37:01;;;;;;;22.67;15.87;;;;;;;3.45;100.00;99058.16;5072710;28;20218;-67
2021/10/11 01:39:28;;;;;;;21.63;16.20;;;;;;;3.45;100.00;99060.78;5072796;28;20217;-67
2021/10/11 01:41:55;;;;;;;23.03;17.60;;;;;;;3.48;100.00;99052.00;5072654;28;20229;-67
2021/10/11 01:44:22;;;;;;;24.07;16.77;;;;;;;3.45;100.00;99063.41;5072606;28;20246;-68
2021/10/11 01:46:48;;;;;;;23.97;16.40;;;;;;;3.47;100.00;99066.81;5070784;28;20224;-67
2021/10/11 01:49:15;;;;;;;23.17;16.07;;;;;;;3.47;100.00;99061.59;5072657;28;20569;-67
2021/10/11 01:51:41;;;;;;;22.93;15.73;;;;;;;3.45;100.00;99062.53;5072705;28;20556;-67
2021/10/11 01:54:07;;;;;;;24.00;16.87;;;;;;;3.47;100.00;99066.81;5075796;28;20218;-67
2021/10/11 01:56:35;;;;;;;21.87;16.67;;;;;;;3.44;100.00;99061.69;5076502;28;20214;-67
2021/10/11 01:59:02;;;;;;;23.00;16.90;;;;;;;3.42;100.00;99058.22;5071030;28;20737;-67
2021/10/11 02:01:28;;;;;;;22.40;16.10;;;;;;;3.38;100.00;99054.00;5076269;28;20213;-67
2021/10/11 02:03:55;;;;;;;22.37;17.40;;;;;;;3.34;100.00;99054.09;5076258;28;20244;-67
2021/10/11 02:06:22;;;;;;;23.10;16.30;;;;;;;3.35;100.00;99054.06;5076464;28;20213;-67
2021/10/11 02:08:48;;;;;;;22.00;16.83;;;;;;;3.41;100.00;99055.66;5076373;28;20225;-67
2021/10/11 02:11:15;;;;;;;21.43;15.80;;;;;;;3.41;100.00;99040.84;5074461;28;20217;-67
2021/10/11 02:13:42;;;;;;;23.40;16.53;;;;;;;3.34;100.00;99047.13;5076256;28;20224;-67
2021/10/11 02:16:09;;;;;;;21.93;16.00;;;;;;;3.28;100.00;99044.69;5075772;28;20237;-67
2021/10/11 02:18:35;;;;;;;19.87;15.03;;;;;;;3.29;100.00;99038.56;5075676;28;20213;-67
2021/10/11 02:21:02;;;;;;;18.60;14.93;;;;;;;3.33;100.00;99032.38;5075788;28;20682;-67
2021/10/11 02:23:29;;;;;;;20.90;15.07;;;;;;;3.31;100.00;99041.97;5075901;28;20214;-67
2021/10/11 02:25:55;;;;;;;21.43;15.27;;;;;;;3.28;100.00;99034.22;5076002;28;20221;-67
2021/10/11 02:28:22;;;;;;;18.57;14.70;;;;;;;3.25;100.00;99044.75;5072122;28;20682;-67
2021/10/11 02:30:49;;;;;;;20.93;14.43;;;;;;;3.22;100.00;99039.63;5075622;28;20213;-67
2021/10/11 02:33:16;;;;;;;21.07;15.13;;;;;;;3.21;100.00;99037.91;5075914;28;20225;-67
2021/10/11 02:35:42;;;;;;;19.47;15.27;;;;;;;3.13;100.00;99028.53;5075846;28;20209;-68
2021/10/11 02:38:09;;;;;;;22.43;16.00;;;;;;;3.13;100.00;99028.53;5073944;28;20215;-67
2021/10/11 02:40:36;;;;;;;23.50;16.50;;;;;;;3.16;100.00;99031.94;5075666;28;20335;-67
2021/10/11 02:43:03;;;;;;;22.73;16.67;;;;;;;3.13;100.00;99023.31;5075707;28;20213;-67
2021/10/11 02:45:29;;;;;;;25.73;17.70;;;;;;;3.11;100.00;99022.50;5075488;28;20237;-67
2021/10/11 02:47:57;;;;;;;22.70;16.27;;;;;;;3.11;100.00;99015.53;5075317;28;20218;-67
2021/10/11 02:50:24;;;;;;;24.40;16.87;;;;;;;3.11;100.00;99019.91;5075509;28;20223;-67
2021/10/11 02:52:50;;;;;;;21.60;15.90;;;;;;;3.14;100.00;99020.69;5075402;28;20237;-67
2021/10/11 02:55:17;;;;;;;22.03;16.03;;;;;;;3.13;100.00;99018.94;5075244;28;20234;-67
2021/10/11 02:57:43;;;;;;;23.13;15.67;;;;;;;3.10;100.00;99029.47;5075142;28;20220;-67
2021/10/11 03:00:10;;;;;;;20.87;15.07;;;;;;;3.11;100.00;99032.97;5070113;28;20228;-67
2021/10/11 03:02:37;;;;;;;19.43;14.97;;;;;;;3.07;100.00;99037.38;5075343;28;20220;-67
2021/10/11 03:05:05;;;;;;;20.30;14.87;;;;;;;3.08;100.00;99036.50;5072662;28;20245;-67
2021/10/11 03:07:32;;;;;;;20.53;14.83;;;;;;;3.07;100.00;99039.16;5075228;28;20224;-67
2021/10/11 03:09:58;;;;;;;19.80;16.13;;;;;;;2.99;100.00;99031.50;5074879;28;20221;-67
2021/10/11 03:12:24;;;;;;;24.10;16.43;;;;;;;2.94;100.00;99024.69;5074825;28;20698;-67
2021/10/11 03:14:51;;;;;;;23.77;16.47;;;;;;;2.93;100.00;99021.19;5074937;28;20268;-67
2021/10/11 03:17:18;;;;;;;22.03;16.40;;;;;;;2.91;100.00;99024.75;5075040;28;20223;-68
2021/10/11 03:19:44;;;;;;;21.03;16.10;;;;;;;2.94;100.00;99022.06;5075140;28;20222;-67
2021/10/11 03:22:12;;;;;;;19.70;15.30;;;;;;;2.91;100.00;99017.78;5075054;28;20208;-67
2021/10/11 03:24:38;;;;;;;20.17;16.93;;;;;;;2.80;100.00;99017.19;5074853;28;20606;-67
2021/10/11 03:27:05;;;;;;;20.83;15.57;;;;;;;2.80;100.00;99017.19;5074518;28;20220;-67
2021/10/11 03:29:31;;;;;;;22.20;15.80;;;;;;;2.79;100.00;99012.00;5070637;28;20218;-67
2021/10/11 03:31:58;;;;;;;24.07;17.23;;;;;;;2.82;100.00;99011.94;5074611;28;20238;-67
2021/10/11 03:34:24;;;;;;;23.43;16.50;;;;;;;2.85;100.00;99004.88;5074815;28;20227;-68
2021/10/11 03:36:51;;;;;;;21.60;15.67;;;;;;;2.82;100.00;99006.72;5074685;28;20225;-67
2021/10/11 03:39:19;;;;;;;20.40;16.07;;;;;;;2.86;100.00;99003.97;5074665;28;20228;-67
2021/10/11 03:41:45;;;;;;;21.40;15.53;;;;;;;2.85;100.00;99001.41;5073203;28;20673;-67
2021/10/11 03:44:12;;;;;;;23.70;15.60;;;;;;;2.86;100.00;98993.53;5074278;28;20246;-67
2021/10/11 03:46:38;;;;;;;22.63;16.20;;;;;;;2.89;100.00;98993.44;5074383;28;20213;-68
2021/10/11 03:49:05;;;;;;;21.17;15.13;;;;;;;2.89;100.00;98993.44;5074394;28;20214;-68
2021/10/11 03:51:32;;;;;;;21.37;16.10;;;;;;;2.83;100.00;98987.53;5074153;28;20224;-67
2021/10/11 03:53:59;;;;;;;21.67;15.47;;;;;;;2.84;100.00;98984.03;5074315;28;20214;-67
2021/10/11 03:56:27;;;;;;;22.07;15.53;;;;;;;2.83;100.00;98983.19;5072602;28;20220;-67
2021/10/11 03:58:53;;;;;;;20.23;15.03;;;;;;;2.82;100.00;98984.06;5068952;28;20218;-68
2021/10/11 04:01:20;;;;;;;21.47;15.50;;;;;;;2.77;100.00;98985.09;5074040;28;20220;-68
2021/10/11 04:03:46;;;;;;;23.17;15.63;;;;;;;2.74;100.00;98974.69;5074153;28;20225;-68
2021/10/11 04:06:13;;;;;;;21.20;15.47;;;;;;;2.73;100.00;98968.66;5074181;28;20298;-68
2021/10/11 04:08:41;;;;;;;22.37;16.63;;;;;;;2.74;100.00;98967.75;5074045;28;20604;-68
2021/10/11 04:11:11;;;;;;;22.73;16.47;;;;;;;2.71;100.00;98980.00;5068932;28;20219;-68
2021/10/11 04:13:39;;;;;;;19.40;15.37;;;;;;;2.72;100.00;98986.94;5073576;28;20242;-68
2021/10/11 04:16:06;;;;;;;21.53;15.70;;;;;;;2.76;100.00;98997.25;5072620;28;20241;-68
2021/10/11 04:18:33;;;;;;;23.93;16.30;;;;;;;2.81;100.00;98999.78;5073756;28;20223;-68
2021/10/11 04:21:00;;;;;;;23.07;16.77;;;;;;;2.86;100.00;98990.06;5073348;28;20207;-67
2021/10/11 04:23:26;;;;;;;21.57;16.30;;;;;;;2.92;100.00;98996.00;5072778;28;20223;-67
2021/10/11 04:25:53;;;;;;;22.93;16.50;;;;;;;2.93;100.00;98995.09;5073408;28;20245;-67
2021/10/11 04:28:19;;;;;;;26.73;18.13;;;;;;;2.90;100.00;98999.53;5073621;28;20220;-68
2021/10/11 04:30:47;;;;;;;22.80;16.03;;;;;;;2.90;100.00;99000.41;5073521;28;20210;-67
2021/10/11 04:33:14;;;;;;;23.80;17.20;;;;;;;2.87;100.00;99008.31;5073655;28;20215;-68
2021/10/11 04:35:41;;;;;;;23.43;17.97;;;;;;;2.86;100.00;99009.19;5073393;28;20216;-68
2021/10/11 04:38:08;;;;;;;23.90;17.20;;;;;;;2.90;100.00;99012.59;5073562;28;20222;-68
2021/10/11 04:40:35;;;;;;;22.67;16.90;;;;;;;2.86;100.00;99019.66;5073304;28;20218;-68
2021/10/11 04:43:02;;;;;;;23.33;17.30;;;;;;;2.89;100.00;99019.56;5073129;28;20217;-68
2021/10/11 04:45:29;;;;;;;23.50;17.03;;;;;;;2.91;100.00;99023.00;5073045;28;20233;-67
2021/10/11 04:47:58;;;;;;;22.10;17.00;;;;;;;2.96;100.00;99031.59;5071727;28;20241;-68
2021/10/11 04:50:25;;;;;;;24.00;18.03;;;;;;;2.92;100.00;99037.78;5073032;28;20212;-68
2021/10/11 04:52:51;;;;;;;25.63;17.50;;;;;;;2.81;100.00;99026.72;5072954;28;20702;-68
2021/10/11 04:55:18;;;;;;;24.13;17.70;;;;;;;2.78;100.00;99012.91;5073260;28;20216;-68
2021/10/11 04:57:45;;;;;;;29.90;19.37;;;;;;;2.74;100.00;99013.84;5073180;28;20209;-68
2021/10/11 05:00:13;;;;;;;25.20;17.90;;;;;;;2.70;100.00;99018.28;5073169;28;20236;-68
2021/10/11 05:02:39;;;;;;;24.23;18.87;;;;;;;2.69;100.00;99021.81;5072913;28;20219;-68
2021/10/11 05:05:08;;;;;;;24.43;18.07;;;;;;;2.69;100.00;99020.97;5072796;28;20707;-68
2021/10/11 05:07:35;;;;;;;24.27;17.40;;;;;;;2.71;100.00;99017.44;5073080;28;20210;-68
2021/10/11 05:10:02;;;;;;;24.73;17.47;;;;;;;2.81;100.00;99031.94;5072926;28;20226;-68
2021/10/11 05:12:28;;;;;;;24.10;17.80;;;;;;;2.83;100.00;99035.41;5072931;28;20222;-68
2021/10/11 05:14:54;;;;;;;24.33;18.23;;;;;;;2.87;100.00;99041.41;5071077;28;20242;-68
2021/10/11 05:17:21;;;;;;;26.07;17.90;;;;;;;2.85;100.00;99038.81;5072967;28;20217;-68
2021/10/11 05:19:47;;;;;;;23.50;17.63;;;;;;;2.86;100.00;99052.72;5072930;28;20218;-68
2021/10/11 05:22:15;;;;;;;26.23;18.30;;;;;;;2.90;100.00;99047.41;5072875;28;20223;-68
2021/10/11 05:24:42;;;;;;;24.90;16.97;;;;;;;2.89;100.00;99048.28;5072524;28;20244;-68
2021/10/11 05:27:08;;;;;;;24.40;17.23;;;;;;;2.84;100.00;99050.16;5072367;28;20227;-68
2021/10/11 05:29:37;;;;;;;22.73;17.10;;;;;;;2.80;100.00;99035.47;5072454;28;20681;-68
2021/10/11 05:32:05;;;;;;;24.27;18.17;;;;;;;2.74;100.00;99025.16;5072489;28;20690;-67
2021/10/11 05:34:32;;;;;;;23.47;17.43;;;;;;;2.75;100.00;99026.03;5072847;28;20213;-68
2021/10/11 05:36:59;;;;;;;24.77;17.93;;;;;;;2.78;100.00;99026.81;5072806;28;20599;-68
2021/10/11 05:39:27;;;;;;;24.33;17.53;;;;;;;2.82;100.00;99031.06;5070959;28;20215;-68
2021/10/11 05:41:54;;;;;;;24.33;17.50;;;;;;;2.90;100.00;99036.97;5072582;28;20219;-68
2021/10/11 05:44:20;;;;;;;24.80;17.97;;;;;;;2.84;100.00;99039.72;5072752;28;20219;-68
2021/10/11 05:46:47;;;;;;;23.17;15.73;;;;;;;2.88;100.00;99046.56;5072509;28;20597;-68
2021/10/11 05:49:14;;;;;;;20.83;14.90;;;;;;;2.86;100.00;99045.75;5072458;28;20214;-68
2021/10/11 05:51:40;;;;;;;21.67;16.27;;;;;;;2.85;100.00;99051.88;5072666;28;20216;-67
2021/10/11 05:54:07;;;;;;;21.60;15.27;;;;;;;2.91;100.00;99054.34;5072273;28;20667;-67
2021/10/11 05:56:35;;;;;;;21.87;16.23;;;;;;;2.91;100.00;99056.94;5072708;28;20210;-67
2021/10/11 05:59:02;;;;;;;21.50;15.43;;;;;;;2.87;100.00;99060.50;5064919;28;20216;-67
2021/10/11 06:01:28;;;;;;;22.40;16.13;;;;;;;2.93;100.00;99067.38;5072596;28;20225;-68
2021/10/11 06:03:55;;;;;;;20.77;16.33;;;;;;;2.97;100.00;99068.97;5072403;28;20236;-68
2021/10/11 06:06:21;;;;;;;23.63;17.10;;;;;;;2.97;100.00;99064.63;5070909;28;20242;-67
2021/10/11 06:08:48;;;;;;;25.43;16.97;;;;;;;3.05;100.00;99069.69;5072404;28;20213;-67
2021/10/11 06:11:16;;;;;;;23.23;16.87;;;;;;;3.11;100.00;99057.31;5072350;28;20217;-67
2021/10/11 06:13:44;;;;;;;22.90;17.13;;;;;;;3.12;100.00;99053.78;5070160;28;20217;-68
2021/10/11 06:16:11;;;;;;;23.03;16.33;;;;;;;3.23;100.00;99063.97;5072151;28;20614;-66
2021/10/11 06:18:37;;;;;;;25.37;17.73;;;;;;;3.31;100.00;99070.72;5072426;28;20219;-67
2021/10/11 06:21:04;;;;;;;25.33;17.00;;;;;;;3.40;100.00;99070.50;5072109;28;20225;-66
2021/10/11 06:23:30;;;;;;;24.17;16.87;;;;;;;3.45;100.00;99073.84;5072332;28;20221;-67
2021/10/11 06:25:57;;;;;;;25.00;18.07;;;;;;;3.48;100.00;99063.31;5072031;28;20239;-66
2021/10/11 06:28:23;;;;;;;21.63;16.63;;;;;;;3.54;100.00;99084.03;5072359;28;20213;-66
2021/10/11 06:30:51;;;;;;;22.20;17.33;;;;;;;3.60;100.00;99083.88;5072403;28;20218;-66
2021/10/11 06:33:21;;;;;;;21.90;16.63;;;;;;;3.63;100.00;99082.94;5070323;28;20221;-67
2021/10/11 06:35:47;;;;;;;24.70;17.97;;;;;;;3.66;100.00;99093.34;5072120;28;20221;-66
2021/10/11 06:38:14;;;;;;;22.63;17.50;;;;;;;3.74;100.00;99086.97;5072180;28;20225;-66
2021/10/11 06:40:42;;;;;;;22.23;16.33;;;;;;;3.81;100.00;99080.72;5074516;28;20216;-66
2021/10/11 06:43:08;;;;;;;21.13;16.30;;;;;;;3.79;100.00;99073.81;5075423;28;20222;-66
2021/10/11 06:45:35;;;;;;;25.30;17.37;;;;;;;3.84;100.00;99064.91;5075347;28;20237;-67
2021/10/11 06:48:03;;;;;;;22.97;16.97;;;;;;;3.88;100.00;99063.94;5075664;28;20220;-66
2021/10/11 06:50:30;;;;;;;23.87;17.17;;;;;;;3.89;100.00;99062.16;5075691;28;20245;-66
2021/10/11 06:52:56;;;;;;;25.47;18.00;;;;;;;3.94;100.00;99061.16;5075695;28;20208;-66
2021/10/11 06:55:23;;;;;;;23.10;16.30;;;;;;;3.98;100.00;99068.00;5075252;28;20680;-66
2021/10/11 06:57:49;;;;;;;24.97;17.33;;;;;;;4.06;100.00;99067.78;5073475;28;20221;-66
2021/10/11 07:00:16;;;;;;;25.17;17.73;;;;;;;4.13;100.00;99075.44;5070325;28;20214;-67
2021/10/11 07:02:43;;;;;;;25.60;18.37;;;;;;;4.27;100.00;99070.66;5075404;28;20580;-66
2021/10/11 07:05:11;;;;;;;24.13;17.33;;;;;;;4.36;100.00;99075.63;5075229;28;20239;-66
2021/10/11 07:07:39;;;;;;;27.37;18.87;;;;;;;4.46;100.00;99079.66;5075231;28;20215;-67
2021/10/11 07:10:06;;;;;;;24.90;18.17;;;;;;;4.58;100.00;99068.81;5074899;28;20211;-67
2021/10/11 07:12:33;;;;;;;26.63;17.97;;;;;;;4.72;100.00;99074.50;5075094;28;20220;-67
2021/10/11 07:14:59;;;;;;;29.87;18.97;;;;;;;4.83;100.00;99068.94;5075017;28;20696;-67
2021/10/11 07:17:26;;;;;;;27.87;19.33;;;;;;;4.99;100.00;99086.72;5074979;28;20216;-67
2021/10/11 07:19:52;;;;;;;27.70;19.60;;;;;;;5.12;100.00;99087.19;5074923;28;20567;-67
2021/10/11 07:22:20;;;;;;;28.90;18.33;;;;;;;5.23;100.00;99092.91;5075112;28;20302;-67
2021/10/11 07:24:48;;;;;;;27.63;19.43;;;;;;;5.29;100.00;99093.59;5073391;28;20227;-67
2021/10/11 07:27:15;;;;;;;27.37;20.00;;;;;;;5.34;100.00;99090.81;5074479;28;20246;-67
2021/10/11 07:29:42;;;;;;;26.63;19.10;;;;;;;5.42;100.00;99092.28;5074866;28;20231;-67
2021/10/11 07:32:09;;;;;;;29.27;19.93;;;;;;;5.53;100.00;99090.16;5074897;28;20222;-67
2021/10/11 07:34:36;;;;;;;29.23;19.40;;;;;;;5.58;100.00;99096.09;5074937;28;20221;-67
2021/10/11 07:37:03;;;;;;;30.50;20.20;;;;;;;5.68;100.00;99094.84;5074812;28;20225;-67
2021/10/11 07:39:31;;;;;;;27.93;19.03;;;;;;;5.75;100.00;99104.22;5074739;28;20578;-67
2021/10/11 07:41:58;;;;;;;28.10;19.80;;;;;;;5.85;100.00;99118.78;5074664;28;20580;-67
2021/10/11 07:44:25;;;;;;;27.70;19.77;;;;;;;5.97;100.00;99118.34;5074633;28;20211;-66
2021/10/11 07:46:54;;;;;;;26.03;19.83;;;;;;;6.08;100.00;99112.72;5074513;28;20232;-67
2021/10/11 07:49:20;;;;;;;26.13;19.47;;;;;;;6.20;100.00;99121.00;5072492;28;20693;-67
2021/10/11 07:51:47;;;;;;;28.90;21.43;;;;;;;6.32;100.00;99122.31;5074390;28;20215;-67
2021/10/11 07:54:16;;;;;;;27.27;19.97;;;;;;;6.54;100.00;99126.72;5074179;28;20211;-67
2021/10/11 07:56:44;;;;;;;26.97;19.77;;;;;;;6.70;100.00;99127.88;5074237;28;20218;-67
2021/10/11 07:59:10;;;;;;;25.13;19.03;;;;;;;6.89;100.00;99130.66;5068993;28;20215;-67
2021/10/11 08:01:37;;;;;;;26.53;20.33;;;;;;;7.05;100.00;99130.00;5071030;28;20575;-67
2021/10/11 08:04:04;;;;;;;25.37;18.77;;;;;;;7.18;100.00;99136.47;5073059;28;20219;-66
2021/10/11 08:06:31;;;;;;;27.60;19.90;;;;;;;7.29;100.00;99140.38;5072611;28;20785;-66
2021/10/11 08:08:57;;;;;;;24.03;19.07;;;;;;;7.39;100.00;99132.97;5072690;28;20216;-67
2021/10/11 08:11:24;;;;;;;23.97;16.97;;;;;;;7.45;100.00;99125.69;5066602;28;20241;-67
2021/10/11 08:13:52;;;;;;;25.60;19.00;;;;;;;7.50;100.00;99118.47;5064778;28;20587;-67
2021/10/11 08:16:18;;;;;;;27.30;17.60;;;;;;;7.57;100.00;99122.56;5069990;28;20241;-67
2021/10/11 08:18:45;;;;;;;24.50;17.50;;;;;;;7.63;100.00;99116.19;5073177;28;20219;-67
2021/10/11 08:21:11;;;;;;;24.03;17.50;;;;;;;7.69;100.00;99119.41;5073587;28;20680;-66
2021/10/11 08:23:41;;;;;;;26.40;17.27;;;;;;;7.73;100.00;99125.41;5073802;28;20215;-66
2021/10/11 08:26:08;;;;;;;25.43;17.17;;;;;;;7.69;100.00;99129.06;5073702;28;20326;-66
2021/10/11 08:28:35;;;;;;;22.93;16.27;;;;;;;7.65;100.00;99138.03;5073433;28;20217;-67
2021/10/11 08:31:03;;;;;;;22.70;16.73;;;;;;;7.68;100.00;99124.75;5073291;28;20697;-67
2021/10/11 08:33:29;;;;;;;21.73;16.33;;;;;;;7.76;100.00;99127.91;5073364;28;20224;-67
2021/10/11 08:35:56;;;;;;;25.23;16.57;;;;;;;7.83;100.00;99121.47;5073407;28;20680;-66
2021/10/11 08:38:23;;;;;;;22.63;17.77;;;;;;;7.97;100.00;99129.63;5073591;28;20220;-67
2021/10/11 08:40:50;;;;;;;24.70;17.70;;;;;;;8.11;100.00;99121.97;5073523;28;20218;-67
2021/10/11 08:43:17;;;;;;;23.93;18.00;;;;;;;8.28;100.00;99123.00;5071691;28;20218;-67
2021/10/11 08:45:46;;;;;;;24.03;16.97;;;;;;;8.44;100.00;99126.63;5073173;28;20321;-67
2021/10/11 08:48:14;;;;;;;22.40;16.17;;;;;;;8.50;100.00;99125.53;5073400;28;20219;-66
2021/10/11 08:50:40;;;;;;;24.37;17.30;;;;;;;8.66;100.00;99121.25;5073439;28;20596;-66
2021/10/11 08:53:07;;;;;;;22.20;16.97;;;;;;;8.79;100.00;99112.72;5073389;28;20214;-66
2021/10/11 08:55:34;;;;;;;24.57;16.17;;;;;;;8.92;100.00;99111.22;5073358;28;20219;-65
2021/10/11 08:58:02;;;;;;;20.97;15.63;;;;;;;9.02;100.00;99114.25;5072954;28;20582;-67
2021/10/11 09:00:32;;;;;;;20.43;16.30;;;;;;;9.17;100.00;99103.84;5073263;28;20218;-67
2021/10/11 09:03:00;;;;;;;18.97;14.70;;;;;;;9.36;100.00;99109.09;5072688;28;20225;-66
2021/10/11 09:05:32;;;;;;;21.43;16.03;;;;;;;9.43;100.00;99100.78;5072732;28;20633;-67
2021/10/11 09:08:01;;;;;;;21.23;15.70;;;;;;;9.52;100.00;99104.75;5063981;28;20223;-67
2021/10/11 09:10:28;;;;;;;19.63;14.30;;;;;;;9.57;100.00;99102.75;5073113;28;20215;-67
2021/10/11 09:12:55;;;;;;;18.20;14.93;;;;;;;9.60;100.00;99097.31;5073166;28;20304;-67
2021/10/11 09:15:25;;;;;;;18.03;14.43;;;;;;;9.66;100.00;99102.28;5073037;28;20233;-67
2021/10/11 09:17:55;;;;;;;18.13;14.80;;;;;;;9.68;100.00;99103.06;5073098;28;20281;-67
2021/10/11 09:20:24;;;;;;;18.27;14.60;;;;;;;9.76;100.00;99103.53;5072686;28;20244;-67
2021/10/11 09:22:53;;;;;;;17.80;14.33;;;;;;;9.79;100.00;99096.28;5072930;28;20214;-68
2021/10/11 09:25:21;;;;;;;18.00;14.63;;;;;;;9.89;100.00;99094.91;5072708;28;20239;-66
2021/10/11 09:27:50;;;;;;;20.83;14.03;;;;;;;9.87;100.00;99096.78;5065675;28;20259;-67
2021/10/11 09:30:18;;;;;;;18.53;13.93;;;;;;;9.96;100.00;99106.00;5072809;28;20229;-67
2021/10/11 09:32:45;;;;;;;18.07;14.23;;;;;;;10.01;100.00;99106.63;5072820;28;20218;-67
2021/10/11 09:35:13;;;;;;;16.53;13.20;;;;;;;10.02;100.00;99105.69;5071209;28;20216;-68
2021/10/11 09:37:46;;;;;;;17.93;14.17;;;;;;;9.97;100.00;99103.28;5071889;28;20679;-67
2021/10/11 09:40:15;;;;;;;16.93;13.83;;;;;;;10.00;100.00;99107.56;5063163;28;20225;-68
2021/10/11 09:42:41;;;;;;;17.03;13.47;;;;;;;10.03;100.00;99107.41;5061656;28;20219;-67
2021/10/11 09:45:08;;;;;;;20.37;14.40;;;;;;;10.02;100.00;99100.38;5065273;28;20216;-67
2021/10/11 09:47:36;;;;;;;16.63;13.53;;;;;;;10.13;100.00;99100.72;5065323;28;20714;-67
2021/10/11 09:50:05;;;;;;;16.73;13.77;;;;;;;10.17;100.00;99104.94;5063216;28;20220;-67
2021/10/11 09:52:32;;;;;;;16.17;13.63;;;;;;;10.26;100.00;99097.38;5061604;28;20210;-67
2021/10/11 09:54:59;;;;;;;19.37;14.27;;;;;;;10.37;100.00;99094.16;5065013;28;20675;-65
2021/10/11 09:57:28;;;;;;;18.03;14.63;;;;;;;10.58;100.00;99087.75;5066301;28;20211;-67
2021/10/11 09:59:54;;;;;;;16.10;13.60;;;;;;;10.65;100.00;99097.88;5060854;28;20211;-65
2021/10/11 10:02:26;;;;;;;17.67;13.70;;;;;;;10.74;100.00;99096.53;5061881;28;20208;-65
2021/10/11 10:04:56;;;;;;;16.10;13.40;;;;;;;10.91;92.92;99094.69;5064846;28;20231;-65
2021/10/11 10:07:24;;;;;;;14.53;11.60;;;;;;;10.88;90.85;99091.34;5065168;28;20234;-66
2021/10/11 10:09:55;;;;;;;16.07;12.73;;;;;;;11.05;84.65;99096.53;5061818;28;20211;-66
2021/10/11 10:12:22;;;;;;;14.37;10.90;;;;;;;11.14;85.14;99085.44;5062747;28;20221;-66
2021/10/11 10:15:00;;;;;;;18.43;12.13;;;;;;;11.17;84.45;99095.84;5060133;28;20246;-67
2021/10/11 10:17:34;;;;;;;13.97;11.97;;;;;;;11.30;82.69;99091.56;5068115;28;20569;-67
2021/10/11 10:20:11;;;;;;;17.57;12.67;;;;;;;11.41;80.81;99095.31;5065566;28;20246;-66
2021/10/11 10:22:50;;;;;;;13.57;11.60;;;;;;;11.44;81.79;99089.00;5068569;28;20218;-67
2021/10/11 10:25:16;;;;;;;14.87;11.87;;;;;;;11.50;83.18;99073.59;5068091;28;20700;-65
2021/10/11 10:27:44;;;;;;;18.27;11.97;;;;;;;11.70;80.70;99069.84;5063625;28;20246;-66
2021/10/11 10:30:18;;;;;;;16.17;12.67;;;;;;;11.84;79.32;99073.38;5066677;28;20218;-66
2021/10/11 10:32:59;;;;;;;17.13;12.33;;;;;;;11.95;79.69;99075.38;5069669;28;20620;-66
2021/10/11 10:35:28;;;;;;;14.53;11.50;;;;;;;12.06;79.40;99081.75;5065310;28;20224;-66
2021/10/11 10:37:55;;;;;;;15.03;11.50;;;;;;;12.08;80.05;99076.34;5065555;28;20699;-66
2021/10/11 10:40:25;;;;;;;13.37;11.07;;;;;;;12.22;79.53;99079.03;5075698;28;20236;-66
2021/10/11 10:43:04;;;;;;;16.50;12.30;;;;;;;12.32;76.65;99074.84;5071691;28;20230;-66
2021/10/11 10:45:35;;;;;;;15.97;11.53;;;;;;;12.35;76.07;99072.03;5070471;28;20217;-66
2021/10/11 10:48:01;;;;;;;14.30;11.53;;;;;;;12.36;76.52;99068.44;5075561;28;20242;-66
2021/10/11 10:50:28;;;;;;;16.53;12.73;;;;;;;12.45;75.76;99055.47;5075649;28;20214;-66
2021/10/11 10:52:57;;;;;;;16.47;12.27;;;;;;;12.42;76.01;99060.09;5073886;28;20219;-66
2021/10/11 10:55:24;;;;;;;17.53;12.83;;;;;;;12.49;74.84;99051.69;5075699;28;20222;-66
2021/10/11 10:57:54;;;;;;;18.37;12.97;;;;;;;12.64;73.46;99061.31;5075496;28;20217;-66
2021/10/11 11:00:20;;;;;;;16.37;12.23;;;;;;;12.55;74.79;99053.09;5075429;28;20296;-67
2021/10/11 11:02:51;;;;;;;16.50;12.77;;;;;;;12.51;74.67;99043.59;5075021;28;20216;-67
2021/10/11 11:05:19;;;;;;;17.53;12.83;;;;;;;12.50;76.57;99042.78;5075372;28;20302;-67
2021/10/11 11:07:49;;;;;;;17.83;11.97;;;;;;;12.55;77.56;99038.03;5075372;28;20244;-67
2021/10/11 11:10:18;;;;;;;16.57;12.40;;;;;;;12.66;76.33;99035.53;5075281;28;20223;-67
2021/10/11 11:12:46;;;;;;;15.27;11.87;;;;;;;12.72;75.76;99029.00;5074910;28;20225;-67
2021/10/11 11:15:23;;;;;;;16.73;12.27;;;;;;;12.80;75.08;99034.66;5074674;28;20246;-67
2021/10/11 11:17:51;;;;;;;16.83;12.90;;;;;;;12.95;72.84;99031.03;5057418;28;20215;-66